createdAt,value
2019-02-23T00:01:33.787Z,62.73
2019-02-23T00:04:05.439Z,61.87
2019-02-23T00:06:37.043Z,64.93
2019-02-23T00:09:08.671Z,56.67
2019-02-23T00:11:40.798Z,50.43
2019-02-23T00:14:12.403Z,48.67
2019-02-23T00:16:44.003Z,58.43
2019-02-23T00:19:24.542Z,66.77
2019-02-23T00:21:48.967Z,62.77
2019-02-23T00:24:20.549Z,49.27
2019-02-23T00:26:52.176Z,56.60
2019-02-23T00:29:24.290Z,40.33
2019-02-23T00:31:55.832Z,50.50
2019-02-23T00:34:27.375Z,49.53
2019-02-23T00:36:59.041Z,52.30
2019-02-23T00:39:30.663Z,55.97
2019-02-23T00:42:02.770Z,54.10
2019-02-23T00:44:34.877Z,60.47
2019-02-23T00:47:06.491Z,52.20
2019-02-23T00:49:38.135Z,51.40
2019-02-23T00:52:09.742Z,46.40
2019-02-23T00:54:41.360Z,57.97
2019-02-23T00:57:12.967Z,59.20
2019-02-23T00:59:44.570Z,59.43
2019-02-23T01:02:16.237Z,51.27
2019-02-23T01:04:47.836Z,48.50
2019-02-23T01:07:19.425Z,72.93
2019-02-23T01:09:51.092Z,71.17
2019-02-23T01:12:22.829Z,60.80
2019-02-23T01:14:54.390Z,74.60
2019-02-23T01:17:26.195Z,53.23
2019-02-23T01:19:58.851Z,50.47
2019-02-23T01:22:30.462Z,55.50
2019-02-23T01:25:02.145Z,43.37
2019-02-23T01:27:33.780Z,47.00
2019-02-23T01:30:09.250Z,46.47
2019-02-23T01:32:40.793Z,59.40
2019-02-23T01:35:12.467Z,42.17
2019-02-23T01:37:44.004Z,59.60
2019-02-23T01:40:15.879Z,48.77
2019-02-23T01:42:47.416Z,43.63
2019-02-23T01:45:19.579Z,38.27
2019-02-23T01:47:51.122Z,40.93
2019-02-23T01:50:22.807Z,55.77
2019-02-23T01:52:54.406Z,60.90
2019-02-23T01:55:25.963Z,45.50
2019-02-23T01:57:58.079Z,62.30
2019-02-23T02:00:30.054Z,49.47
2019-02-23T02:03:01.746Z,49.23
2019-02-23T02:05:33.351Z,58.33
2019-02-23T02:08:04.940Z,55.40
2019-02-23T02:10:36.540Z,56.47
2019-02-23T02:13:08.132Z,49.57
2019-02-23T02:15:40.670Z,50.33
2019-02-23T02:18:12.284Z,52.53
2019-02-23T02:20:43.817Z,50.13
2019-02-23T02:23:15.426Z,56.03
2019-02-23T02:25:46.960Z,44.87
2019-02-23T02:28:18.471Z,42.93
2019-02-23T02:30:50.121Z,48.57
2019-02-23T02:33:22.277Z,42.17
2019-02-23T02:35:53.973Z,49.57
2019-02-23T02:38:25.642Z,47.97
2019-02-23T02:40:57.200Z,45.10
2019-02-23T02:43:28.748Z,53.07
2019-02-23T02:46:00.416Z,46.60
2019-02-23T02:48:32.508Z,55.43
2019-02-23T02:51:04.133Z,48.63
2019-02-23T02:53:35.737Z,64.77
2019-02-23T02:56:07.454Z,60.63
2019-02-23T02:58:38.999Z,53.57
2019-02-23T03:01:10.574Z,52.73
2019-02-23T03:03:42.215Z,47.83
2019-02-23T03:06:13.818Z,60.07
2019-02-23T03:08:45.429Z,72.17
2019-02-23T03:11:19.833Z,63.37
2019-02-23T03:13:51.438Z,78.37
2019-02-23T03:16:22.960Z,75.07
2019-02-23T03:18:54.501Z,69.87
2019-02-23T03:21:26.043Z,67.03
2019-02-23T03:23:57.835Z,63.17
2019-02-23T03:26:29.461Z,60.13
2019-02-23T03:29:01.467Z,59.30
2019-02-23T03:31:33.075Z,55.73
2019-02-23T03:34:04.653Z,48.27
2019-02-23T03:36:36.330Z,56.20
2019-02-23T03:39:08.006Z,39.00
2019-02-23T03:41:39.680Z,62.90
2019-02-23T03:44:11.227Z,62.40
2019-02-23T03:46:42.754Z,57.83
2019-02-23T03:49:14.889Z,58.63
2019-02-23T03:51:46.421Z,51.53
2019-02-23T03:54:17.999Z,53.63
2019-02-23T03:56:49.675Z,55.10
2019-02-23T03:59:21.355Z,60.77
2019-02-23T04:01:52.965Z,57.07
2019-02-23T04:04:24.552Z,56.50
2019-02-23T04:06:56.124Z,55.73
2019-02-23T04:09:27.813Z,41.63
2019-02-23T04:11:59.423Z,49.77
2019-02-23T04:14:31.000Z,59.07
2019-02-23T04:17:02.549Z,52.97
2019-02-23T04:19:34.130Z,58.63
2019-02-23T04:22:05.742Z,59.13
2019-02-23T04:24:37.260Z,58.93
2019-02-23T04:27:08.799Z,63.77
2019-02-23T04:29:40.818Z,62.37
2019-02-23T04:32:12.418Z,60.63
2019-02-23T04:34:43.922Z,55.70
2019-02-23T04:37:15.589Z,42.20
2019-02-23T04:39:47.200Z,41.63
2019-02-23T04:42:18.829Z,50.73
2019-02-23T04:44:50.947Z,41.20
2019-02-23T04:47:22.548Z,54.20
2019-02-23T04:49:55.665Z,47.80
2019-02-23T04:52:27.184Z,44.57
2019-02-23T04:54:58.937Z,45.23
2019-02-23T04:57:30.685Z,52.93
2019-02-23T05:00:02.780Z,48.37
2019-02-23T05:02:35.560Z,60.73
2019-02-23T05:05:08.103Z,54.93
2019-02-23T05:07:39.660Z,69.50
2019-02-23T05:10:11.258Z,80.20
2019-02-23T05:12:42.969Z,69.57
2019-02-23T05:15:15.006Z,67.10
2019-02-23T05:17:46.544Z,70.20
2019-02-23T05:20:18.138Z,78.23
2019-02-23T05:22:49.826Z,50.70
2019-02-23T05:25:21.441Z,66.37
2019-02-23T05:27:53.010Z,55.40
2019-02-23T05:30:25.071Z,48.53
2019-02-23T05:32:56.849Z,50.90
2019-02-23T05:35:28.505Z,46.60
2019-02-23T05:38:00.122Z,46.37
2019-02-23T05:40:31.643Z,48.87
2019-02-23T05:43:03.159Z,45.33
2019-02-23T05:45:35.138Z,49.60
2019-02-23T05:48:06.774Z,48.80
2019-02-23T05:50:38.386Z,47.43
2019-02-23T05:53:09.988Z,40.17
2019-02-23T05:55:41.583Z,44.97
2019-02-23T05:58:13.136Z,53.70
2019-02-23T06:00:44.943Z,45.60
2019-02-23T06:03:16.535Z,50.87
2019-02-23T06:05:48.049Z,85.13
2019-02-23T06:08:19.638Z,63.90
2019-02-23T06:10:51.296Z,65.63
2019-02-23T06:13:22.973Z,55.53
2019-02-23T06:15:54.800Z,62.43
2019-02-23T06:18:26.425Z,52.97
2019-02-23T06:20:57.979Z,44.87
2019-02-23T06:23:30.109Z,44.40
2019-02-23T06:26:01.723Z,51.27
2019-02-23T06:28:33.278Z,50.50
2019-02-23T06:31:04.855Z,56.57
2019-02-23T06:33:36.525Z,50.40
2019-02-23T06:36:08.189Z,55.40
2019-02-23T06:38:39.949Z,56.73
2019-02-23T06:41:11.478Z,51.87
2019-02-23T06:43:43.068Z,45.27
2019-02-23T06:46:14.606Z,65.00
2019-02-23T06:48:46.138Z,49.37
2019-02-23T06:51:17.673Z,46.23
2019-02-23T06:53:49.277Z,48.77
2019-02-23T06:56:20.966Z,56.57
2019-02-23T06:58:52.642Z,64.27
2019-02-23T07:01:24.206Z,65.30
2019-02-23T07:03:55.764Z,61.27
2019-02-23T07:06:27.344Z,53.40
2019-02-23T07:08:58.892Z,54.90
2019-02-23T07:11:30.498Z,65.07
2019-02-23T07:14:02.140Z,59.53
2019-02-23T07:16:33.780Z,63.07
2019-02-23T07:19:05.393Z,72.00
2019-02-23T07:21:37.029Z,64.70
2019-02-23T07:24:08.779Z,83.80
2019-02-23T07:26:43.120Z,70.37
2019-02-23T07:29:14.718Z,66.17
2019-02-23T07:31:46.311Z,71.90
2019-02-23T07:34:17.837Z,79.50
2019-02-23T07:36:49.446Z,90.83
2019-02-23T07:39:21.136Z,108.23
2019-02-23T07:41:52.757Z,108.37
2019-02-23T07:44:24.307Z,116.77
2019-02-23T07:46:55.820Z,95.83
2019-02-23T07:49:27.357Z,71.50
2019-02-23T07:51:59.548Z,75.37
2019-02-23T07:54:31.126Z,54.63
2019-02-23T07:57:02.815Z,48.27
2019-02-23T07:59:34.459Z,51.73
2019-02-23T08:02:06.225Z,42.20
2019-02-23T08:04:37.829Z,52.07
2019-02-23T08:07:09.369Z,40.77
2019-02-23T08:09:42.060Z,40.07
2019-02-23T08:12:13.766Z,49.37
2019-02-23T08:14:46.472Z,44.17
2019-02-23T08:17:18.226Z,39.10
2019-02-23T08:19:50.801Z,51.77
2019-02-23T08:22:22.512Z,47.70
2019-02-23T08:24:54.152Z,52.40
2019-02-23T08:27:25.679Z,41.43
2019-02-23T08:29:57.251Z,42.93
2019-02-23T08:32:28.857Z,35.07
2019-02-23T08:35:00.525Z,32.13
2019-02-23T08:37:32.184Z,31.37
2019-02-23T08:40:06.454Z,35.20
2019-02-23T08:42:38.101Z,33.63
2019-02-23T08:45:10.669Z,30.67
2019-02-23T08:47:42.232Z,26.60
2019-02-23T08:50:16.871Z,24.00
2019-02-23T08:52:50.193Z,27.43
2019-02-23T08:55:21.807Z,33.47
2019-02-23T08:57:54.008Z,30.77
2019-02-23T09:00:25.604Z,28.93
2019-02-23T09:02:57.236Z,30.13
2019-02-23T09:05:28.966Z,33.97
2019-02-23T09:08:00.720Z,30.70
2019-02-23T09:10:32.284Z,26.70
2019-02-23T09:13:03.839Z,27.67
2019-02-23T09:15:35.431Z,27.60
2019-02-23T09:18:07.019Z,22.77
2019-02-23T09:20:38.520Z,23.63
2019-02-23T09:23:10.277Z,15.23
2019-02-23T09:25:41.879Z,24.43
2019-02-23T09:28:13.417Z,24.17
2019-02-23T09:30:45.018Z,22.77
2019-02-23T09:33:16.543Z,21.07
2019-02-23T09:35:48.118Z,16.73
2019-02-23T09:38:19.648Z,25.53
2019-02-23T09:40:51.201Z,23.70
2019-02-23T09:43:22.808Z,28.37
2019-02-23T09:45:55.489Z,25.23
2019-02-23T09:48:27.019Z,18.90
2019-02-23T09:50:58.598Z,18.73
2019-02-23T09:53:30.136Z,21.83
2019-02-23T09:56:01.676Z,17.60
2019-02-23T09:58:33.262Z,30.57
2019-02-23T10:01:04.795Z,19.50
2019-02-23T10:03:36.300Z,19.53
2019-02-23T10:06:07.871Z,18.33
2019-02-23T10:08:39.517Z,33.57
2019-02-23T10:11:11.139Z,24.77
2019-02-23T10:13:42.821Z,22.00
2019-02-23T10:16:14.350Z,19.40
2019-02-23T10:18:47.014Z,20.53
2019-02-23T10:21:18.598Z,20.97
2019-02-23T10:23:50.198Z,29.40
2019-02-23T10:26:21.711Z,30.40
2019-02-23T10:28:53.354Z,24.60
2019-02-23T10:31:24.898Z,27.13
2019-02-23T10:33:56.592Z,24.10
2019-02-23T10:36:28.187Z,26.97
2019-02-23T10:38:59.958Z,19.43
2019-02-23T10:41:31.653Z,23.33
2019-02-23T10:44:03.202Z,25.20
2019-02-23T10:46:35.242Z,23.93
2019-02-23T10:49:06.907Z,27.13
2019-02-23T10:51:40.300Z,28.63
2019-02-23T10:54:11.849Z,30.13
2019-02-23T10:56:43.456Z,29.13
2019-02-23T10:59:16.254Z,26.73
2019-02-23T11:01:47.861Z,38.80
2019-02-23T11:04:20.581Z,27.37
2019-02-23T11:06:54.393Z,25.40
2019-02-23T11:09:30.447Z,24.90
2019-02-23T11:12:02.147Z,33.50
2019-02-23T11:14:33.691Z,23.30
2019-02-23T11:17:05.213Z,19.70
2019-02-23T11:19:36.816Z,24.57
2019-02-23T11:22:09.490Z,19.83
2019-02-23T11:24:41.126Z,16.57
2019-02-23T11:27:13.043Z,14.20
2019-02-23T11:29:44.680Z,15.30
2019-02-23T11:32:16.286Z,17.33
2019-02-23T11:34:47.807Z,18.83
2019-02-23T11:37:19.334Z,18.80
2019-02-23T11:39:50.841Z,19.73
2019-02-23T11:42:22.406Z,13.27
2019-02-23T11:44:53.961Z,15.10
2019-02-23T11:47:26.096Z,17.23
2019-02-23T11:49:57.726Z,18.97
2019-02-23T11:52:29.305Z,15.43
2019-02-23T11:55:00.864Z,18.87
2019-02-23T11:57:32.530Z,16.87
2019-02-23T12:00:07.380Z,20.90
2019-02-23T12:02:39.478Z,21.10
2019-02-23T12:05:11.756Z,25.43
2019-02-23T12:07:43.384Z,19.27
2019-02-23T12:10:16.684Z,18.87
2019-02-23T12:12:48.562Z,16.37
2019-02-23T12:15:20.113Z,15.93
2019-02-23T12:17:52.134Z,17.63
2019-02-23T12:20:23.656Z,18.53
2019-02-23T12:22:55.327Z,20.97
2019-02-23T12:25:26.977Z,21.37
2019-02-23T12:27:58.536Z,20.80
2019-02-23T12:30:32.874Z,21.67
2019-02-23T12:33:04.708Z,18.80
2019-02-23T12:35:36.438Z,19.10
2019-02-23T12:38:08.105Z,17.10
2019-02-23T12:40:39.782Z,18.30
2019-02-23T12:43:11.363Z,16.33
2019-02-23T12:45:43.118Z,14.23
2019-02-23T12:48:15.220Z,14.07
2019-02-23T12:50:47.388Z,14.73
2019-02-23T12:53:19.506Z,12.47
2019-02-23T12:55:51.228Z,13.90
2019-02-23T12:58:22.889Z,16.73
2019-02-23T13:00:54.533Z,18.00
2019-02-23T13:03:26.306Z,17.73
2019-02-23T13:05:58.062Z,17.23
2019-02-23T13:09:07.597Z,21.67
2019-02-23T13:11:42.869Z,14.70
2019-02-23T13:14:35.080Z,18.53
2019-02-23T13:17:45.923Z,17.07
2019-02-23T13:20:40.404Z,17.63
2019-02-23T13:23:20.513Z,15.37
2019-02-23T13:26:21.299Z,21.87
2019-02-23T13:29:15.548Z,15.37
2019-02-23T13:32:04.862Z,17.17
2019-02-23T13:35:10.150Z,23.00
2019-02-23T13:38:07.583Z,21.63
2019-02-23T13:40:46.927Z,21.00
2019-02-23T13:43:47.315Z,19.43
2019-02-23T13:46:32.629Z,23.43
2019-02-23T13:49:17.322Z,20.77
2019-02-23T13:51:54.321Z,20.73
2019-02-23T13:54:38.894Z,23.03
2019-02-23T13:57:24.059Z,21.33
2019-02-23T14:00:15.197Z,20.23
2019-02-23T14:03:09.489Z,21.23
2019-02-23T14:06:14.586Z,17.77
2019-02-23T14:09:24.242Z,17.30
2019-02-23T14:12:22.882Z,33.17
2019-02-23T14:15:17.339Z,22.43
2019-02-23T14:18:11.974Z,27.83
2019-02-23T14:20:48.526Z,20.93
2019-02-23T14:23:39.936Z,21.90
2019-02-23T14:26:36.256Z,25.17
2019-02-23T14:29:30.110Z,21.50
2019-02-23T14:32:40.661Z,26.17
2019-02-23T14:35:36.960Z,16.50
2019-02-23T14:38:19.148Z,28.60
2019-02-23T14:41:13.353Z,20.03
2019-02-23T14:43:59.119Z,23.57
2019-02-23T14:47:00.204Z,24.53
2019-02-23T14:49:55.055Z,20.23
2019-02-23T14:53:02.693Z,20.17
2019-02-23T14:56:11.024Z,22.77
2019-02-23T14:59:11.547Z,16.30
2019-02-23T15:01:57.163Z,25.47
2019-02-23T15:05:00.234Z,23.50
2019-02-23T15:07:48.461Z,24.93
2019-02-23T15:10:42.915Z,25.87
2019-02-23T15:13:40.503Z,26.03
2019-02-23T15:16:19.609Z,20.07
2019-02-23T15:19:21.211Z,22.20
2019-02-23T15:22:12.576Z,20.70
2019-02-23T15:24:55.079Z,26.43
2019-02-23T15:28:09.523Z,31.17
2019-02-23T15:30:57.640Z,31.73
2019-02-23T15:33:57.951Z,32.33
2019-02-23T15:36:45.833Z,25.97
2019-02-23T15:39:55.946Z,28.33
2019-02-23T15:43:09.821Z,35.30
2019-02-23T15:46:24.751Z,26.53
2019-02-23T15:49:30.564Z,34.30
2019-02-23T15:52:04.119Z,30.73
2019-02-23T15:54:35.628Z,34.30
2019-02-23T15:57:07.334Z,43.47
2019-02-23T15:59:39.506Z,45.57
2019-02-23T16:02:11.384Z,46.87
2019-02-23T16:04:43.117Z,32.97
2019-02-23T16:07:14.799Z,28.87
2019-02-23T16:09:46.363Z,24.07
2019-02-23T16:12:17.888Z,23.30
2019-02-23T16:14:50.575Z,23.03
2019-02-23T16:17:22.717Z,28.20
2019-02-23T16:19:54.352Z,25.60
2019-02-23T16:22:26.106Z,28.90
2019-02-23T16:24:57.735Z,27.07
2019-02-23T16:27:29.285Z,25.03
2019-02-23T16:30:00.975Z,25.80
2019-02-23T16:32:32.773Z,22.97
2019-02-23T16:35:05.508Z,24.50
2019-02-23T16:37:37.236Z,31.17
2019-02-23T16:40:09.234Z,26.33
2019-02-23T16:42:40.907Z,30.50
2019-02-23T16:45:12.422Z,19.67
2019-02-23T16:47:44.085Z,21.40
2019-02-23T16:50:15.842Z,23.70
2019-02-23T16:52:47.517Z,22.73
2019-02-23T16:55:19.128Z,20.67
2019-02-23T16:57:52.448Z,20.70
2019-02-23T17:00:24.050Z,19.00
2019-02-23T17:02:55.590Z,21.53
2019-02-23T17:05:27.110Z,25.27
2019-02-23T17:07:59.010Z,21.73
2019-02-23T17:10:30.704Z,27.67
2019-02-23T17:13:02.240Z,26.77
2019-02-23T17:15:34.346Z,30.93
2019-02-23T17:18:07.111Z,31.20
2019-02-23T17:20:38.701Z,17.83
2019-02-23T17:23:10.458Z,22.43
2019-02-23T17:25:42.155Z,24.07
2019-02-23T17:28:14.667Z,23.53
2019-02-23T17:30:46.283Z,24.63
2019-02-23T17:33:17.953Z,21.50
2019-02-23T17:35:49.898Z,21.37
2019-02-23T17:38:21.566Z,23.17
2019-02-23T17:40:53.167Z,32.60
2019-02-23T17:43:24.760Z,25.00
2019-02-23T17:45:58.163Z,27.40
2019-02-23T17:51:01.416Z,38.27
2019-02-23T17:53:33.202Z,34.93
2019-02-23T17:56:12.072Z,35.93
2019-02-23T17:58:38.289Z,38.47
2019-02-23T18:01:10.396Z,35.77
2019-02-23T18:03:42.195Z,37.87
2019-02-23T18:06:13.871Z,45.00
2019-02-23T18:08:48.674Z,31.50
2019-02-23T18:11:20.391Z,41.63
2019-02-23T18:13:53.135Z,45.13
2019-02-23T18:16:24.809Z,47.83
2019-02-23T18:18:57.608Z,85.37
2019-02-23T18:21:29.614Z,53.33
2019-02-23T18:24:02.232Z,47.37
2019-02-23T18:26:33.911Z,47.37
2019-02-23T18:29:05.537Z,43.37
2019-02-23T18:31:38.251Z,45.83
2019-02-23T18:34:09.894Z,40.83
2019-02-23T18:36:41.654Z,52.37
2019-02-23T18:39:13.194Z,52.80
2019-02-23T18:41:44.882Z,35.83
2019-02-23T18:44:16.494Z,36.47
2019-02-23T18:46:48.173Z,47.77
2019-02-23T18:49:19.821Z,46.97
2019-02-23T18:51:51.470Z,46.97
2019-02-23T18:54:23.229Z,46.47
2019-02-23T18:56:54.898Z,44.43
2019-02-23T18:59:26.583Z,44.27
2019-02-23T19:01:58.761Z,43.17
2019-02-23T19:04:30.302Z,43.00
2019-02-23T19:07:01.892Z,45.73
2019-02-23T19:09:33.585Z,50.53
2019-02-23T19:12:05.125Z,53.83
2019-02-23T19:14:36.739Z,50.60
2019-02-23T19:17:08.759Z,49.93
2019-02-23T19:19:40.457Z,48.60
2019-02-23T19:22:12.066Z,50.97
2019-02-23T19:24:46.171Z,69.27
2019-02-23T19:27:17.961Z,63.57
2019-02-23T19:29:49.470Z,71.00
2019-02-23T19:32:21.700Z,66.53
2019-02-23T19:34:53.490Z,73.93
2019-02-23T19:37:25.087Z,91.23
2019-02-23T19:39:56.701Z,85.03
2019-02-23T19:42:28.526Z,82.00
2019-02-23T19:45:00.057Z,89.30
2019-02-23T19:47:32.581Z,90.17
2019-02-23T19:50:10.102Z,107.93
2019-02-23T19:52:41.711Z,97.53
2019-02-23T19:55:16.773Z,110.87
2019-02-23T19:57:48.364Z,141.30
2019-02-23T20:00:20.022Z,114.63
2019-02-23T20:02:51.918Z,127.23
2019-02-23T20:05:23.454Z,120.23
2019-02-23T20:07:55.165Z,129.13
2019-02-23T20:10:26.852Z,129.37
2019-02-23T20:12:58.586Z,119.03
2019-02-23T20:15:30.185Z,130.13
2019-02-23T20:18:03.456Z,111.43
2019-02-23T20:20:35.290Z,120.63
2019-02-23T20:23:10.883Z,113.10
2019-02-23T20:25:43.491Z,119.20
2019-02-23T20:28:15.176Z,103.67
2019-02-23T20:30:46.715Z,107.87
2019-02-23T20:33:19.080Z,110.33
2019-02-23T20:35:50.896Z,116.20
2019-02-23T20:38:22.610Z,104.00
2019-02-23T20:40:55.281Z,92.63
2019-02-23T20:43:26.906Z,111.03
2019-02-23T20:45:58.449Z,108.50
2019-02-23T20:48:30.059Z,106.40
2019-02-23T20:51:01.912Z,99.73
2019-02-23T20:53:33.555Z,96.77
2019-02-23T20:56:05.226Z,99.37
2019-02-23T20:58:36.907Z,97.50
2019-02-23T21:01:08.539Z,101.67
2019-02-23T21:03:40.289Z,97.33
2019-02-23T21:06:11.923Z,98.33
2019-02-23T21:08:43.613Z,99.70
2019-02-23T21:11:15.268Z,93.47
2019-02-23T21:13:46.857Z,92.53
2019-02-23T21:16:18.544Z,83.00
2019-02-23T21:18:50.206Z,89.47
2019-02-23T21:21:21.833Z,81.27
2019-02-23T21:23:53.491Z,91.13
2019-02-23T21:26:25.087Z,87.97
2019-02-23T21:28:56.844Z,88.77
2019-02-23T21:31:28.448Z,86.03
2019-02-23T21:33:59.954Z,87.03
2019-02-23T21:36:31.634Z,89.83
2019-02-23T21:39:03.800Z,78.97
2019-02-23T21:41:36.496Z,81.97
2019-02-23T21:44:08.176Z,94.43
2019-02-23T21:46:39.720Z,77.10
2019-02-23T21:49:11.269Z,83.57
2019-02-23T21:51:42.872Z,85.53
2019-02-23T21:54:14.407Z,82.97
2019-02-23T21:56:46.029Z,81.53
2019-02-23T21:59:17.722Z,81.43
2019-02-23T22:01:52.492Z,94.17
2019-02-23T22:04:24.078Z,88.03
2019-02-23T22:06:55.626Z,90.80
2019-02-23T22:09:28.424Z,90.40
2019-02-23T22:12:00.192Z,87.60
2019-02-23T22:14:31.771Z,97.33
2019-02-23T22:17:03.346Z,82.80
2019-02-23T22:19:34.951Z,93.33
2019-02-23T22:22:06.546Z,78.03
2019-02-23T22:24:38.281Z,78.60
2019-02-23T22:27:13.189Z,90.33
2019-02-23T22:29:44.845Z,85.50
2019-02-23T22:32:16.495Z,91.30
2019-02-23T22:34:48.162Z,90.67
2019-02-23T22:37:19.948Z,85.57
2019-02-23T22:39:51.667Z,85.53
2019-02-23T22:42:23.255Z,75.87
2019-02-23T22:44:54.808Z,76.53
2019-02-23T22:47:28.395Z,87.83
2019-02-23T22:49:59.994Z,80.50
2019-02-23T22:52:31.577Z,77.23
2019-02-23T22:55:03.615Z,69.47
2019-02-23T22:57:40.547Z,71.20
2019-02-23T23:00:14.353Z,70.07
2019-02-23T23:02:47.660Z,72.03
2019-02-23T23:05:19.352Z,76.33
2019-02-23T23:07:51.062Z,61.07
2019-02-23T23:10:22.748Z,68.33
2019-02-23T23:12:54.324Z,71.97
2019-02-23T23:15:25.843Z,72.70
2019-02-23T23:17:57.363Z,56.80
2019-02-23T23:20:28.881Z,57.57
2019-02-23T23:23:00.432Z,45.90
2019-02-23T23:25:32.044Z,58.70
2019-02-23T23:28:03.737Z,46.83
2019-02-23T23:30:35.359Z,55.23
2019-02-23T23:33:07.040Z,42.47
2019-02-23T23:35:38.679Z,40.80
2019-02-23T23:38:10.242Z,42.67
2019-02-23T23:40:41.774Z,41.33
2019-02-23T23:43:13.365Z,38.10
2019-02-23T23:45:44.915Z,46.17
2019-02-23T23:48:16.470Z,45.90
2019-02-23T23:50:48.013Z,39.93
2019-02-23T23:53:19.678Z,40.73
2019-02-23T23:55:51.176Z,35.00
2019-02-23T23:58:22.731Z,40.60
